createdAt,value
2023-07-30T00:00:50.597Z,61.36
2023-07-30T00:03:18.687Z,61.61
2023-07-30T00:05:56.428Z,61.94
2023-07-30T00:08:24.746Z,62.42
2023-07-30T00:10:52.283Z,60.70
2023-07-30T00:13:19.932Z,61.04
2023-07-30T00:15:48.291Z,61.14
2023-07-30T00:18:16.584Z,61.29
2023-07-30T00:20:44.576Z,61.34
2023-07-30T00:23:12.418Z,62.10
2023-07-30T00:25:39.900Z,62.17
2023-07-30T00:28:07.590Z,62.11
2023-07-30T00:30:35.410Z,62.17
2023-07-30T00:33:03.020Z,61.86
2023-07-30T00:37:58.420Z,59.56
2023-07-30T00:40:25.993Z,58.99
2023-07-30T00:42:53.623Z,58.23
2023-07-30T00:45:21.605Z,58.14
2023-07-30T00:47:49.180Z,57.11
2023-07-30T00:50:19.475Z,57.79
2023-07-30T00:52:47.318Z,57.85
2023-07-30T00:55:15.537Z,58.06
2023-07-30T00:57:44.185Z,57.08
2023-07-30T01:00:12.819Z,57.89
2023-07-30T01:02:45.980Z,56.92
2023-07-30T01:05:14.273Z,56.65
2023-07-30T01:07:41.755Z,57.05
2023-07-30T01:10:09.442Z,57.11
2023-07-30T01:12:37.726Z,56.90
2023-07-30T01:15:07.150Z,56.39
2023-07-30T01:17:35.310Z,57.09
2023-07-30T01:20:04.145Z,56.16
2023-07-30T01:22:31.798Z,56.89
2023-07-30T01:24:59.284Z,56.39
2023-07-30T01:27:33.192Z,56.76
2023-07-30T01:30:14.632Z,56.67
2023-07-30T01:32:43.076Z,56.02
2023-07-30T01:35:11.538Z,56.02
2023-07-30T01:37:40.296Z,56.28
2023-07-30T01:40:09.121Z,56.12
2023-07-30T01:42:36.885Z,55.90
2023-07-30T01:45:05.976Z,55.90
2023-07-30T01:47:34.004Z,55.66
2023-07-30T01:50:01.525Z,56.33
2023-07-30T01:52:29.720Z,56.17
2023-07-30T01:54:59.592Z,56.73
2023-07-30T01:57:27.108Z,56.48
2023-07-30T01:59:54.727Z,57.12
2023-07-30T02:02:22.756Z,57.17
2023-07-30T02:04:50.777Z,56.42
2023-07-30T02:07:18.292Z,56.18
2023-07-30T02:09:46.335Z,56.25
2023-07-30T02:12:14.044Z,56.31
2023-07-30T02:14:41.891Z,56.36
2023-07-30T02:17:09.770Z,56.86
2023-07-30T02:19:37.281Z,56.37
2023-07-30T02:22:05.224Z,56.32
2023-07-30T02:24:34.454Z,56.31
2023-07-30T02:27:02.090Z,56.37
2023-07-30T02:29:29.983Z,56.32
2023-07-30T02:31:58.113Z,56.23
2023-07-30T02:34:25.746Z,56.39
2023-07-30T02:36:53.469Z,56.48
2023-07-30T02:39:21.710Z,56.60
2023-07-30T02:41:49.247Z,56.36
2023-07-30T02:44:17.178Z,56.37
2023-07-30T02:46:45.053Z,56.86
2023-07-30T02:49:12.629Z,56.70
2023-07-30T02:51:40.448Z,57.15
2023-07-30T02:54:08.991Z,56.87
2023-07-30T02:56:36.645Z,56.35
2023-07-30T02:59:04.351Z,56.66
2023-07-30T03:01:32.199Z,57.11
2023-07-30T03:03:59.689Z,57.07
2023-07-30T03:06:27.315Z,56.76
2023-07-30T03:08:55.451Z,57.03
2023-07-30T03:11:23.797Z,57.19
2023-07-30T03:13:51.537Z,57.21
2023-07-30T03:16:19.328Z,57.15
2023-07-30T03:18:46.843Z,57.38
2023-07-30T03:21:14.330Z,57.44
2023-07-30T03:23:44.471Z,57.46
2023-07-30T03:26:12.817Z,57.97
2023-07-30T03:28:41.113Z,58.02
2023-07-30T03:31:09.211Z,58.17
2023-07-30T03:33:36.977Z,58.58
2023-07-30T03:36:04.681Z,58.87
2023-07-30T03:38:32.907Z,58.06
2023-07-30T03:41:00.831Z,58.68
2023-07-30T03:43:28.494Z,59.30
2023-07-30T03:45:56.508Z,58.91
2023-07-30T03:48:24.083Z,58.59
2023-07-30T03:50:51.762Z,59.45
2023-07-30T03:53:19.653Z,59.64
2023-07-30T03:55:47.293Z,59.56
2023-07-30T03:58:15.009Z,59.43
2023-07-30T04:00:43.443Z,59.28
2023-07-30T04:03:11.381Z,59.27
2023-07-30T04:05:38.940Z,59.20
2023-07-30T04:08:07.174Z,58.82
2023-07-30T04:10:35.097Z,58.54
2023-07-30T04:13:03.033Z,57.96
2023-07-30T04:15:30.763Z,57.70
2023-07-30T04:17:58.722Z,57.59
2023-07-30T04:20:26.317Z,57.18
2023-07-30T04:22:55.920Z,57.18
2023-07-30T04:25:23.867Z,56.87
2023-07-30T04:27:51.805Z,56.85
2023-07-30T04:30:20.937Z,55.87
2023-07-30T04:32:49.056Z,56.66
2023-07-30T04:35:16.958Z,56.03
2023-07-30T04:37:44.470Z,56.49
2023-07-30T04:40:12.765Z,56.49
2023-07-30T04:42:40.291Z,56.35
2023-07-30T04:45:08.232Z,55.25
2023-07-30T04:47:36.636Z,55.37
2023-07-30T04:50:04.405Z,56.09
2023-07-30T04:52:32.128Z,56.55
2023-07-30T04:55:00.197Z,56.24
2023-07-30T04:57:28.148Z,55.09
2023-07-30T04:59:55.782Z,55.24
2023-07-30T05:02:23.644Z,55.28
2023-07-30T05:04:51.721Z,54.76
2023-07-30T05:07:19.213Z,54.74
2023-07-30T05:09:47.071Z,54.74
2023-07-30T05:12:14.523Z,55.59
2023-07-30T05:14:41.982Z,56.15
2023-07-30T05:17:09.879Z,55.11
2023-07-30T05:19:37.307Z,55.64
2023-07-30T05:22:06.999Z,54.58
2023-07-30T05:24:35.172Z,54.89
2023-07-30T05:27:02.637Z,55.03
2023-07-30T05:29:30.427Z,54.75
2023-07-30T05:31:58.381Z,55.00
2023-07-30T05:34:25.988Z,54.87
2023-07-30T05:36:53.574Z,54.01
2023-07-30T05:39:21.578Z,54.01
2023-07-30T05:41:49.086Z,53.12
2023-07-30T05:44:16.544Z,53.12
2023-07-30T05:46:49.174Z,52.70
2023-07-30T05:49:16.746Z,52.36
2023-07-30T05:51:44.629Z,52.72
2023-07-30T05:54:13.358Z,52.58
2023-07-30T05:56:40.806Z,52.28
2023-07-30T05:59:08.581Z,51.97
2023-07-30T06:01:36.541Z,52.03
2023-07-30T06:04:07.814Z,52.79
2023-07-30T06:06:35.335Z,53.01
2023-07-30T06:09:02.935Z,53.42
2023-07-30T06:11:30.832Z,51.70
2023-07-30T06:13:58.421Z,53.12
2023-07-30T06:16:26.034Z,52.87
2023-07-30T06:18:53.966Z,53.50
2023-07-30T06:21:21.636Z,52.27
2023-07-30T06:23:49.152Z,51.86
2023-07-30T06:26:16.915Z,51.92
2023-07-30T06:28:44.395Z,52.21
2023-07-30T06:31:11.940Z,51.95
2023-07-30T06:33:40.070Z,51.79
2023-07-30T06:36:07.695Z,50.87
2023-07-30T06:38:38.124Z,51.23
2023-07-30T06:41:06.344Z,51.06
2023-07-30T06:43:33.770Z,50.56
2023-07-30T06:46:01.367Z,50.81
2023-07-30T06:48:32.392Z,51.42
2023-07-30T06:51:00.289Z,51.24
2023-07-30T06:53:27.952Z,51.15
2023-07-30T06:55:55.758Z,50.60
2023-07-30T06:58:23.281Z,51.13
2023-07-30T07:00:50.761Z,51.26
2023-07-30T07:03:19.048Z,52.02
2023-07-30T07:05:54.259Z,53.28
2023-07-30T07:08:22.691Z,54.03
2023-07-30T07:10:50.641Z,54.78
2023-07-30T07:13:25.535Z,55.08
2023-07-30T07:22:56.316Z,55.62
2023-07-30T07:25:25.240Z,57.10
2023-07-30T07:28:11.796Z,57.09
2023-07-30T07:30:53.496Z,57.32
2023-07-30T07:33:39.107Z,57.11
2023-07-30T07:36:30.312Z,57.62
2023-07-30T07:39:04.476Z,56.97
2023-07-30T07:41:32.895Z,56.93
2023-07-30T07:44:00.633Z,57.22
2023-07-30T07:46:29.790Z,56.34
2023-07-30T07:49:08.179Z,55.17
2023-07-30T07:51:38.841Z,55.76
2023-07-30T07:54:08.142Z,55.70
2023-07-30T07:56:35.876Z,58.01
2023-07-30T07:59:17.241Z,58.14
2023-07-30T08:01:45.244Z,58.96
2023-07-30T08:04:13.419Z,59.68
2023-07-30T08:06:41.198Z,59.43
2023-07-30T08:09:08.741Z,60.09
2023-07-30T08:11:39.365Z,60.65
2023-07-30T08:14:07.297Z,60.97
2023-07-30T08:16:35.192Z,60.95
2023-07-30T08:19:03.672Z,61.56
2023-07-30T08:21:31.202Z,61.77
2023-07-30T08:23:58.857Z,62.12
2023-07-30T08:26:26.705Z,63.10
2023-07-30T08:28:54.373Z,62.26
2023-07-30T08:31:22.071Z,62.58
2023-07-30T08:33:50.042Z,62.80
2023-07-30T08:36:17.606Z,63.61
2023-07-30T08:38:45.089Z,63.39
2023-07-30T08:41:13.445Z,63.45
2023-07-30T08:43:41.181Z,64.13
2023-07-30T08:46:10.609Z,64.62
2023-07-30T08:52:43.779Z,65.62
2023-07-30T08:55:12.323Z,65.93
2023-07-30T08:57:41.088Z,65.71
2023-07-30T09:00:10.502Z,65.80
2023-07-30T09:02:49.543Z,65.26
2023-07-30T09:05:17.340Z,65.22
2023-07-30T09:07:45.831Z,65.59
2023-07-30T09:10:14.100Z,64.80
2023-07-30T09:12:41.814Z,65.10
2023-07-30T09:15:09.991Z,65.33
2023-07-30T09:17:39.288Z,65.61
2023-07-30T09:20:07.671Z,65.00
2023-07-30T09:22:42.052Z,64.87
2023-07-30T09:25:10.187Z,64.85
2023-07-30T09:27:38.553Z,64.81
2023-07-30T09:30:07.217Z,64.76
2023-07-30T09:32:36.416Z,64.53
2023-07-30T09:35:08.411Z,65.22
2023-07-30T09:37:41.131Z,65.11
2023-07-30T09:40:11.361Z,64.65
2023-07-30T09:42:41.880Z,63.68
2023-07-30T09:45:17.899Z,63.74
2023-07-30T09:47:49.467Z,64.15
2023-07-30T09:50:17.490Z,64.61
2023-07-30T09:52:45.852Z,64.12
2023-07-30T09:55:13.663Z,64.11
2023-07-30T09:57:41.556Z,64.18
2023-07-30T10:00:10.288Z,64.33
2023-07-30T10:02:44.360Z,64.68
2023-07-30T10:05:15.967Z,64.21
2023-07-30T10:07:59.352Z,64.29
2023-07-30T10:10:29.004Z,65.43
2023-07-30T10:13:00.443Z,64.45
2023-07-30T10:15:28.170Z,62.88
2023-07-30T10:17:59.497Z,63.84
2023-07-30T10:20:30.510Z,64.09
2023-07-30T10:22:59.813Z,63.57
2023-07-30T10:25:31.836Z,63.77
2023-07-30T10:27:59.919Z,62.28
2023-07-30T10:30:32.296Z,62.28
2023-07-30T10:33:01.555Z,62.10
2023-07-30T10:35:39.974Z,61.20
2023-07-30T10:38:18.085Z,59.78
2023-07-30T10:41:02.377Z,60.77
2023-07-30T10:43:38.469Z,62.05
2023-07-30T10:46:06.955Z,62.80
2023-07-30T10:48:36.751Z,61.30
2023-07-30T10:51:06.491Z,62.04
2023-07-30T10:53:36.954Z,62.66
2023-07-30T10:56:05.531Z,62.37
2023-07-30T10:58:36.201Z,62.61
2023-07-30T11:01:05.454Z,62.90
2023-07-30T11:03:33.975Z,62.69
2023-07-30T11:06:02.596Z,62.37
2023-07-30T11:08:37.672Z,62.26
2023-07-30T11:11:06.632Z,60.66
2023-07-30T11:13:39.007Z,62.33
2023-07-30T11:16:07.709Z,62.77
2023-07-30T11:18:36.744Z,63.38
2023-07-30T11:21:11.598Z,62.66
2023-07-30T11:23:42.720Z,62.92
2023-07-30T11:26:16.139Z,62.35
2023-07-30T11:28:44.399Z,62.28
2023-07-30T11:31:12.981Z,63.11
2023-07-30T11:33:48.160Z,63.16
2023-07-30T11:36:23.764Z,62.82
2023-07-30T11:38:54.196Z,61.24
2023-07-30T11:41:24.412Z,63.24
2023-07-30T11:43:52.979Z,63.84
2023-07-30T11:46:24.074Z,63.43
2023-07-30T11:48:54.649Z,61.98
2023-07-30T11:51:30.092Z,61.03
2023-07-30T11:54:02.693Z,63.23
2023-07-30T11:56:31.580Z,63.33
2023-07-30T11:59:06.308Z,62.66
2023-07-30T12:01:36.687Z,61.41
2023-07-30T12:04:07.347Z,62.76
2023-07-30T12:06:45.267Z,62.96
2023-07-30T12:09:20.116Z,62.97
2023-07-30T12:11:52.930Z,61.72
2023-07-30T12:14:23.906Z,62.35
2023-07-30T12:16:51.376Z,62.21
2023-07-30T12:19:19.027Z,61.31
2023-07-30T12:21:46.993Z,60.75
2023-07-30T12:24:15.151Z,60.22
2023-07-30T12:26:42.625Z,60.01
2023-07-30T12:29:10.733Z,60.42
2023-07-30T12:31:38.709Z,61.35
2023-07-30T12:34:06.736Z,60.64
2023-07-30T12:36:34.779Z,59.81
2023-07-30T12:39:02.386Z,62.72
2023-07-30T12:41:30.042Z,60.96
2023-07-30T12:43:58.489Z,62.07
2023-07-30T12:46:31.073Z,60.92
2023-07-30T12:49:05.451Z,60.79
2023-07-30T12:51:33.889Z,60.14
2023-07-30T12:54:02.248Z,59.99
2023-07-30T12:56:29.911Z,59.71
2023-07-30T12:58:57.489Z,59.75
2023-07-30T13:01:25.468Z,60.10
2023-07-30T13:03:55.732Z,58.45
2023-07-30T13:06:23.737Z,60.55
2023-07-30T13:08:51.807Z,58.34
2023-07-30T13:11:19.386Z,57.08
2023-07-30T13:13:47.055Z,57.85
2023-07-30T13:16:15.045Z,57.48
2023-07-30T13:18:42.575Z,57.14
2023-07-30T13:21:10.104Z,57.50
2023-07-30T13:23:37.879Z,58.83
2023-07-30T13:26:05.402Z,59.92
2023-07-30T13:28:32.943Z,59.31
2023-07-30T13:31:00.975Z,57.66
2023-07-30T13:33:28.664Z,56.97
2023-07-30T13:35:56.206Z,57.67
2023-07-30T13:38:26.482Z,56.67
2023-07-30T13:40:54.438Z,57.98
2023-07-30T13:43:22.320Z,56.71
2023-07-30T13:45:51.446Z,56.27
2023-07-30T13:48:21.114Z,57.30
2023-07-30T13:50:48.750Z,56.77
2023-07-30T13:53:16.638Z,56.98
2023-07-30T13:55:44.496Z,55.79
2023-07-30T13:58:12.766Z,57.75
2023-07-30T14:00:43.421Z,57.16
2023-07-30T14:03:12.901Z,55.13
2023-07-30T14:05:40.530Z,53.96
2023-07-30T14:08:08.170Z,54.86
2023-07-30T14:10:36.077Z,54.79
2023-07-30T14:13:03.603Z,55.52
2023-07-30T14:15:32.639Z,56.27
2023-07-30T14:18:00.510Z,54.17
2023-07-30T14:20:28.153Z,52.53
2023-07-30T14:22:55.939Z,51.72
2023-07-30T14:25:24.041Z,52.80
2023-07-30T14:27:51.711Z,52.75
2023-07-30T14:30:19.543Z,53.28
2023-07-30T14:32:47.702Z,53.43
2023-07-30T14:35:15.560Z,53.43
2023-07-30T14:37:43.095Z,53.04
2023-07-30T14:40:12.503Z,53.38
2023-07-30T14:42:41.237Z,51.11
2023-07-30T14:45:09.557Z,51.74
2023-07-30T14:47:37.475Z,52.68
2023-07-30T14:50:06.158Z,52.45
2023-07-30T14:52:33.978Z,51.84
2023-07-30T14:55:01.854Z,52.04
2023-07-30T14:57:29.393Z,52.51
2023-07-30T14:59:56.884Z,51.82
2023-07-30T15:02:24.833Z,50.96
2023-07-30T15:04:52.667Z,51.51
2023-07-30T15:07:20.220Z,49.82
2023-07-30T15:09:48.201Z,51.25
2023-07-30T15:12:15.757Z,51.77
2023-07-30T15:14:43.378Z,49.36
2023-07-30T15:17:11.242Z,49.12
2023-07-30T15:19:40.753Z,49.63
2023-07-30T15:22:08.395Z,50.98
2023-07-30T15:24:38.467Z,50.69
2023-07-30T15:27:07.318Z,51.07
2023-07-30T15:29:34.831Z,51.27
2023-07-30T15:32:03.446Z,51.67
2023-07-30T15:34:31.031Z,50.93
2023-07-30T15:37:00.337Z,49.61
2023-07-30T15:39:28.282Z,50.65
2023-07-30T15:41:55.796Z,48.74
2023-07-30T15:44:23.391Z,48.63
2023-07-30T15:46:51.540Z,49.27
2023-07-30T15:49:20.842Z,49.87
2023-07-30T15:51:48.471Z,49.43
2023-07-30T15:54:16.956Z,49.10
2023-07-30T15:56:44.499Z,49.62
2023-07-30T15:59:12.174Z,49.05
2023-07-30T16:01:40.573Z,49.37
2023-07-30T16:04:08.744Z,49.27
2023-07-30T16:06:36.702Z,49.92
2023-07-30T16:09:04.518Z,50.39
2023-07-30T16:11:34.588Z,53.51
2023-07-30T16:14:02.182Z,52.10
2023-07-30T16:16:29.885Z,50.70
2023-07-30T16:18:59.042Z,50.17
2023-07-30T16:21:27.093Z,49.55
2023-07-30T16:23:54.783Z,49.51
2023-07-30T16:26:23.029Z,50.29
2023-07-30T16:28:50.705Z,50.36
2023-07-30T16:31:18.353Z,51.63
2023-07-30T16:33:46.458Z,52.96
2023-07-30T16:36:14.027Z,52.07
2023-07-30T16:38:41.787Z,51.11
2023-07-30T16:41:10.514Z,51.50
2023-07-30T16:43:38.122Z,52.36
2023-07-30T16:46:05.757Z,52.22
2023-07-30T16:48:33.836Z,52.13
2023-07-30T16:51:01.503Z,52.08
2023-07-30T16:53:29.341Z,51.58
2023-07-30T16:55:57.499Z,51.48
2023-07-30T16:58:25.563Z,51.13
2023-07-30T17:01:04.864Z,51.58
2023-07-30T17:03:34.946Z,51.71
2023-07-30T17:06:03.115Z,51.75
2023-07-30T17:08:31.073Z,51.95
2023-07-30T17:11:04.626Z,52.39
2023-07-30T17:13:32.227Z,52.36
2023-07-30T17:16:05.657Z,52.79
2023-07-30T17:18:33.366Z,53.19
2023-07-30T17:21:01.959Z,53.07
2023-07-30T17:23:29.673Z,53.74
2023-07-30T17:25:59.589Z,53.72
2023-07-30T17:28:30.070Z,53.23
2023-07-30T17:30:58.067Z,53.33
2023-07-30T17:33:26.026Z,53.53
2023-07-30T17:35:54.140Z,54.06
2023-07-30T17:38:21.939Z,54.82
2023-07-30T17:40:56.418Z,54.78
2023-07-30T17:43:25.060Z,54.84
2023-07-30T17:45:52.761Z,54.64
2023-07-30T17:48:20.423Z,54.38
2023-07-30T17:50:49.389Z,54.32
2023-07-30T17:53:19.181Z,54.34
2023-07-30T17:55:47.610Z,54.53
2023-07-30T17:58:15.528Z,55.33
2023-07-30T18:00:48.589Z,55.24
2023-07-30T18:03:16.928Z,55.20
2023-07-30T18:05:49.097Z,55.50
2023-07-30T18:08:18.237Z,56.41
2023-07-30T18:10:48.028Z,56.72
2023-07-30T18:13:16.632Z,56.95
2023-07-30T18:15:45.478Z,56.34
2023-07-30T18:18:14.735Z,56.83
2023-07-30T18:20:42.839Z,57.22
2023-07-30T18:23:10.817Z,56.26
2023-07-30T18:25:38.447Z,57.83
2023-07-30T18:28:06.962Z,58.42
2023-07-30T18:30:36.788Z,57.38
2023-07-30T18:33:07.586Z,57.22
2023-07-30T18:35:38.664Z,58.43
2023-07-30T18:38:06.291Z,58.61
2023-07-30T18:40:37.812Z,58.96
2023-07-30T18:43:06.853Z,59.24
2023-07-30T18:45:35.589Z,59.41
2023-07-30T18:48:03.987Z,59.16
2023-07-30T18:50:32.856Z,58.94
2023-07-30T18:53:02.662Z,58.99
2023-07-30T18:55:30.210Z,59.48
2023-07-30T18:57:58.309Z,60.24
2023-07-30T19:00:25.909Z,60.12
2023-07-30T19:02:55.610Z,59.86
2023-07-30T19:05:23.667Z,59.79
2023-07-30T19:07:51.285Z,60.87
2023-07-30T19:10:20.562Z,60.70
2023-07-30T19:12:48.556Z,60.72
2023-07-30T19:15:16.391Z,60.96
2023-07-30T19:17:44.000Z,60.85
2023-07-30T19:20:12.188Z,60.95
2023-07-30T19:22:39.719Z,60.75
2023-07-30T19:25:07.882Z,60.48
2023-07-30T19:27:35.801Z,62.17
2023-07-30T19:30:03.603Z,61.66
2023-07-30T19:32:31.621Z,62.16
2023-07-30T19:34:59.510Z,62.73
2023-07-30T19:37:26.991Z,62.10
2023-07-30T19:39:56.889Z,61.77
2023-07-30T19:42:24.887Z,61.91
2023-07-30T19:44:52.824Z,61.40
2023-07-30T19:47:23.787Z,61.79
2023-07-30T19:49:52.333Z,61.56
2023-07-30T19:52:20.413Z,62.02
2023-07-30T19:54:47.967Z,61.94
2023-07-30T19:57:15.863Z,61.66
2023-07-30T19:59:43.370Z,63.17
2023-07-30T20:02:10.955Z,62.42
2023-07-30T20:04:39.393Z,62.86
2023-07-30T20:07:07.054Z,61.70
2023-07-30T20:09:34.585Z,62.18
2023-07-30T20:12:02.488Z,61.66
2023-07-30T20:14:30.206Z,62.30
2023-07-30T20:16:57.852Z,63.40
2023-07-30T20:19:25.704Z,63.24
2023-07-30T20:21:54.002Z,63.89
2023-07-30T20:24:21.746Z,64.45
2023-07-30T20:26:49.867Z,63.59
2023-07-30T20:29:19.277Z,63.27
2023-07-30T20:31:46.852Z,62.85
2023-07-30T20:34:14.777Z,62.82
2023-07-30T20:36:42.469Z,62.54
2023-07-30T20:39:10.131Z,62.96
2023-07-30T20:41:38.065Z,63.21
2023-07-30T20:44:05.608Z,63.46
2023-07-30T20:46:33.209Z,63.58
2023-07-30T20:49:01.104Z,63.49
2023-07-30T20:51:29.639Z,63.53
2023-07-30T20:53:57.159Z,63.64
2023-07-30T20:56:25.259Z,63.11
2023-07-30T20:58:53.070Z,63.85
2023-07-30T21:01:20.617Z,63.29
2023-07-30T21:03:48.574Z,63.48
2023-07-30T21:06:16.156Z,63.20
2023-07-30T21:08:46.114Z,63.46
2023-07-30T21:11:13.967Z,62.68
2023-07-30T21:13:41.490Z,63.43
2023-07-30T21:16:09.055Z,63.77
2023-07-30T21:18:36.940Z,64.20
2023-07-30T21:21:04.511Z,64.52
2023-07-30T21:23:32.313Z,64.55
2023-07-30T21:26:01.430Z,64.67
2023-07-30T21:28:28.976Z,64.51
2023-07-30T21:31:06.858Z,64.45
2023-07-30T21:33:36.217Z,65.05
2023-07-30T21:36:05.175Z,64.61
2023-07-30T21:38:32.912Z,64.55
2023-07-30T21:41:00.926Z,65.16
2023-07-30T21:43:32.221Z,65.17
2023-07-30T21:46:00.892Z,65.02
2023-07-30T21:48:28.799Z,64.71
2023-07-30T21:51:05.862Z,64.80
2023-07-30T21:53:33.654Z,65.00
2023-07-30T21:56:02.824Z,65.13
2023-07-30T21:58:30.451Z,64.96
2023-07-30T22:00:59.354Z,65.31
2023-07-30T22:03:27.927Z,64.42
2023-07-30T22:05:55.933Z,66.07
2023-07-30T22:08:23.528Z,65.33
2023-07-30T22:10:51.473Z,65.36
2023-07-30T22:13:19.692Z,65.33
2023-07-30T22:15:47.968Z,65.77
2023-07-30T22:18:16.383Z,65.72
2023-07-30T22:20:44.208Z,65.49
2023-07-30T22:23:11.900Z,65.32
2023-07-30T22:25:39.643Z,66.32
2023-07-30T22:28:10.077Z,66.22
2023-07-30T22:30:41.838Z,66.05
2023-07-30T22:33:10.732Z,66.12
2023-07-30T22:35:38.392Z,65.92
2023-07-30T22:38:06.215Z,65.80
2023-07-30T22:40:34.151Z,65.84
2023-07-30T22:43:01.824Z,65.78
2023-07-30T22:45:29.444Z,66.05
2023-07-30T22:47:57.524Z,65.13
2023-07-30T22:50:25.242Z,65.69
2023-07-30T22:52:52.719Z,65.19
2023-07-30T22:55:20.625Z,65.37
2023-07-30T22:57:48.278Z,64.88
2023-07-30T23:00:15.780Z,64.98
2023-07-30T23:02:56.466Z,65.27
2023-07-30T23:05:24.174Z,65.21
2023-07-30T23:07:52.140Z,65.50
2023-07-30T23:10:21.127Z,64.75
2023-07-30T23:12:48.651Z,65.52
2023-07-30T23:15:16.697Z,65.57
2023-07-30T23:17:44.319Z,65.78
2023-07-30T23:20:12.066Z,65.83
2023-07-30T23:22:39.935Z,65.68
2023-07-30T23:25:07.854Z,65.47
2023-07-30T23:27:35.312Z,65.70
2023-07-30T23:30:03.188Z,65.58
2023-07-30T23:32:30.737Z,65.55
2023-07-30T23:34:58.267Z,65.59
2023-07-30T23:37:26.833Z,65.28
2023-07-30T23:39:54.442Z,64.92
2023-07-30T23:42:21.945Z,65.03
2023-07-30T23:44:49.810Z,64.25
2023-07-30T23:47:18.470Z,63.21
2023-07-30T23:49:46.101Z,63.65
2023-07-30T23:52:14.113Z,63.64
2023-07-30T23:54:41.754Z,64.17
2023-07-30T23:57:09.715Z,64.11
2023-07-30T23:59:37.733Z,64.96
